sensor_id;sensor_type;location;lat;lon;timestamp;P1;durP1;ratioP1;P2;durP2;ratioP2
5819;SDS011;2936;47.348;9.640;2023-03-03T00:00:07;72.65;;;31.88;;
5819;SDS011;2936;47.348;9.640;2023-03-03T00:02:35;78.97;;;34.33;;
5819;SDS011;2936;47.348;9.640;2023-03-03T00:05:02;81.35;;;32.33;;
5819;SDS011;2936;47.348;9.640;2023-03-03T00:07:29;81.40;;;35.05;;
5819;SDS011;2936;47.348;9.640;2023-03-03T00:09:57;75.78;;;33.25;;
5819;SDS011;2936;47.348;9.640;2023-03-03T00:12:27;76.22;;;32.53;;
5819;SDS011;2936;47.348;9.640;2023-03-03T00:14:54;73.07;;;31.98;;
5819;SDS011;2936;47.348;9.640;2023-03-03T00:17:22;82.32;;;34.63;;
5819;SDS011;2936;47.348;9.640;2023-03-03T00:19:49;70.13;;;31.92;;
5819;SDS011;2936;47.348;9.640;2023-03-03T00:22:21;85.43;;;35.03;;
5819;SDS011;2936;47.348;9.640;2023-03-03T00:24:54;73.72;;;32.55;;
5819;SDS011;2936;47.348;9.640;2023-03-03T00:27:25;75.13;;;33.38;;
5819;SDS011;2936;47.348;9.640;2023-03-03T00:29:54;76.03;;;32.58;;
5819;SDS011;2936;47.348;9.640;2023-03-03T00:32:23;69.93;;;30.75;;
5819;SDS011;2936;47.348;9.640;2023-03-03T00:34:51;74.55;;;32.03;;
5819;SDS011;2936;47.348;9.640;2023-03-03T00:37:25;86.75;;;33.83;;
5819;SDS011;2936;47.348;9.640;2023-03-03T00:39:56;79.38;;;34.92;;
5819;SDS011;2936;47.348;9.640;2023-03-03T00:42:25;81.32;;;35.35;;
5819;SDS011;2936;47.348;9.640;2023-03-03T00:44:57;75.72;;;35.30;;
5819;SDS011;2936;47.348;9.640;2023-03-03T00:47:26;90.57;;;36.67;;
5819;SDS011;2936;47.348;9.640;2023-03-03T00:49:54;82.72;;;33.28;;
5819;SDS011;2936;47.348;9.640;2023-03-03T00:52:22;98.32;;;34.88;;
5819;SDS011;2936;47.348;9.640;2023-03-03T00:54:51;80.03;;;34.00;;
5819;SDS011;2936;47.348;9.640;2023-03-03T00:57:18;78.68;;;34.03;;
5819;SDS011;2936;47.348;9.640;2023-03-03T00:59:45;83.85;;;33.20;;
5819;SDS011;2936;47.348;9.640;2023-03-03T01:02:14;79.95;;;34.55;;
5819;SDS011;2936;47.348;9.640;2023-03-03T01:04:42;90.35;;;34.47;;
5819;SDS011;2936;47.348;9.640;2023-03-03T01:07:10;85.13;;;34.30;;
5819;SDS011;2936;47.348;9.640;2023-03-03T01:09:38;96.35;;;34.75;;
5819;SDS011;2936;47.348;9.640;2023-03-03T01:12:05;81.28;;;33.45;;
5819;SDS011;2936;47.348;9.640;2023-03-03T01:14:32;78.30;;;31.55;;
5819;SDS011;2936;47.348;9.640;2023-03-03T01:17:00;79.82;;;31.15;;
5819;SDS011;2936;47.348;9.640;2023-03-03T01:19:29;80.88;;;30.65;;
5819;SDS011;2936;47.348;9.640;2023-03-03T01:21:56;73.32;;;31.08;;
5819;SDS011;2936;47.348;9.640;2023-03-03T01:24:23;75.43;;;31.10;;
5819;SDS011;2936;47.348;9.640;2023-03-03T01:26:51;74.22;;;29.80;;
5819;SDS011;2936;47.348;9.640;2023-03-03T01:29:18;75.00;;;31.92;;
5819;SDS011;2936;47.348;9.640;2023-03-03T01:31:45;76.60;;;31.30;;
5819;SDS011;2936;47.348;9.640;2023-03-03T01:34:13;64.68;;;29.58;;
5819;SDS011;2936;47.348;9.640;2023-03-03T01:36:41;65.82;;;30.08;;
5819;SDS011;2936;47.348;9.640;2023-03-03T01:39:09;65.55;;;29.77;;
5819;SDS011;2936;47.348;9.640;2023-03-03T01:41:36;82.13;;;32.25;;
5819;SDS011;2936;47.348;9.640;2023-03-03T01:44:04;74.43;;;29.63;;
5819;SDS011;2936;47.348;9.640;2023-03-03T01:46:39;72.28;;;31.90;;
5819;SDS011;2936;47.348;9.640;2023-03-03T01:49:10;75.68;;;32.47;;
5819;SDS011;2936;47.348;9.640;2023-03-03T01:51:45;68.10;;;31.65;;
5819;SDS011;2936;47.348;9.640;2023-03-03T01:54:15;67.00;;;29.40;;
5819;SDS011;2936;47.348;9.640;2023-03-03T01:56:44;59.97;;;27.17;;
5819;SDS011;2936;47.348;9.640;2023-03-03T01:59:13;67.45;;;30.65;;
5819;SDS011;2936;47.348;9.640;2023-03-03T02:01:42;60.58;;;28.20;;
5819;SDS011;2936;47.348;9.640;2023-03-03T02:04:10;65.05;;;28.60;;
5819;SDS011;2936;47.348;9.640;2023-03-03T02:06:39;65.32;;;31.10;;
5819;SDS011;2936;47.348;9.640;2023-03-03T02:09:09;65.70;;;29.77;;
5819;SDS011;2936;47.348;9.640;2023-03-03T02:11:44;67.68;;;28.10;;
5819;SDS011;2936;47.348;9.640;2023-03-03T02:14:14;63.63;;;28.13;;
5819;SDS011;2936;47.348;9.640;2023-03-03T02:16:42;67.72;;;27.52;;
5819;SDS011;2936;47.348;9.640;2023-03-03T02:19:12;70.40;;;30.85;;
5819;SDS011;2936;47.348;9.640;2023-03-03T02:21:42;62.90;;;27.77;;
5819;SDS011;2936;47.348;9.640;2023-03-03T02:24:12;74.13;;;27.85;;
5819;SDS011;2936;47.348;9.640;2023-03-03T02:26:46;73.38;;;30.33;;
5819;SDS011;2936;47.348;9.640;2023-03-03T02:29:14;63.58;;;28.60;;
5819;SDS011;2936;47.348;9.640;2023-03-03T02:31:53;71.30;;;29.95;;
5819;SDS011;2936;47.348;9.640;2023-03-03T02:34:20;66.22;;;29.13;;
5819;SDS011;2936;47.348;9.640;2023-03-03T02:36:51;62.13;;;28.15;;
5819;SDS011;2936;47.348;9.640;2023-03-03T02:39:20;59.20;;;28.85;;
5819;SDS011;2936;47.348;9.640;2023-03-03T02:41:50;66.35;;;29.10;;
5819;SDS011;2936;47.348;9.640;2023-03-03T02:44:20;70.90;;;29.90;;
5819;SDS011;2936;47.348;9.640;2023-03-03T02:46:49;70.63;;;29.02;;
5819;SDS011;2936;47.348;9.640;2023-03-03T02:49:18;62.33;;;29.77;;
5819;SDS011;2936;47.348;9.640;2023-03-03T02:51:46;64.78;;;28.38;;
5819;SDS011;2936;47.348;9.640;2023-03-03T02:54:14;68.18;;;28.55;;
5819;SDS011;2936;47.348;9.640;2023-03-03T02:56:42;73.60;;;30.42;;
5819;SDS011;2936;47.348;9.640;2023-03-03T02:59:11;65.68;;;27.70;;
5819;SDS011;2936;47.348;9.640;2023-03-03T03:01:38;65.15;;;29.77;;
5819;SDS011;2936;47.348;9.640;2023-03-03T03:04:07;75.88;;;29.48;;
5819;SDS011;2936;47.348;9.640;2023-03-03T03:06:35;73.07;;;29.77;;
5819;SDS011;2936;47.348;9.640;2023-03-03T03:09:02;72.15;;;28.98;;
5819;SDS011;2936;47.348;9.640;2023-03-03T03:11:30;71.65;;;29.50;;
5819;SDS011;2936;47.348;9.640;2023-03-03T03:13:59;78.05;;;31.05;;
5819;SDS011;2936;47.348;9.640;2023-03-03T03:16:28;70.68;;;30.10;;
5819;SDS011;2936;47.348;9.640;2023-03-03T03:18:56;68.93;;;30.63;;
5819;SDS011;2936;47.348;9.640;2023-03-03T03:21:23;73.07;;;30.25;;
5819;SDS011;2936;47.348;9.640;2023-03-03T03:23:50;66.07;;;28.13;;
5819;SDS011;2936;47.348;9.640;2023-03-03T03:26:18;76.82;;;33.58;;
5819;SDS011;2936;47.348;9.640;2023-03-03T03:28:46;80.18;;;32.53;;
5819;SDS011;2936;47.348;9.640;2023-03-03T03:31:13;74.60;;;31.88;;
5819;SDS011;2936;47.348;9.640;2023-03-03T03:33:43;75.07;;;31.92;;
5819;SDS011;2936;47.348;9.640;2023-03-03T03:36:10;73.68;;;32.38;;
5819;SDS011;2936;47.348;9.640;2023-03-03T03:38:37;86.03;;;34.50;;
5819;SDS011;2936;47.348;9.640;2023-03-03T03:41:07;83.40;;;34.45;;
5819;SDS011;2936;47.348;9.640;2023-03-03T03:43:35;76.68;;;32.58;;
5819;SDS011;2936;47.348;9.640;2023-03-03T03:46:02;72.43;;;31.55;;
5819;SDS011;2936;47.348;9.640;2023-03-03T03:48:30;71.82;;;33.78;;
5819;SDS011;2936;47.348;9.640;2023-03-03T03:50:59;88.15;;;35.17;;
5819;SDS011;2936;47.348;9.640;2023-03-03T03:53:26;83.07;;;33.50;;
5819;SDS011;2936;47.348;9.640;2023-03-03T03:55:53;86.13;;;35.25;;
5819;SDS011;2936;47.348;9.640;2023-03-03T03:58:21;83.38;;;34.38;;
5819;SDS011;2936;47.348;9.640;2023-03-03T04:00:48;78.05;;;32.15;;
5819;SDS011;2936;47.348;9.640;2023-03-03T04:03:15;79.15;;;32.35;;
5819;SDS011;2936;47.348;9.640;2023-03-03T04:05:43;81.25;;;33.33;;
5819;SDS011;2936;47.348;9.640;2023-03-03T04:08:12;74.32;;;32.88;;
5819;SDS011;2936;47.348;9.640;2023-03-03T04:10:39;69.28;;;31.02;;
5819;SDS011;2936;47.348;9.640;2023-03-03T04:13:07;79.13;;;32.65;;
5819;SDS011;2936;47.348;9.640;2023-03-03T04:15:34;74.25;;;31.20;;
5819;SDS011;2936;47.348;9.640;2023-03-03T04:18:02;72.28;;;32.67;;
5819;SDS011;2936;47.348;9.640;2023-03-03T04:20:29;70.20;;;30.08;;
5819;SDS011;2936;47.348;9.640;2023-03-03T04:22:57;76.22;;;31.08;;
5819;SDS011;2936;47.348;9.640;2023-03-03T04:25:25;77.93;;;32.03;;
5819;SDS011;2936;47.348;9.640;2023-03-03T04:27:53;60.05;;;28.60;;
5819;SDS011;2936;47.348;9.640;2023-03-03T04:30:20;82.07;;;34.35;;
5819;SDS011;2936;47.348;9.640;2023-03-03T04:32:48;73.97;;;32.58;;
5819;SDS011;2936;47.348;9.640;2023-03-03T04:35:15;68.32;;;29.63;;
5819;SDS011;2936;47.348;9.640;2023-03-03T04:37:42;83.55;;;34.65;;
5819;SDS011;2936;47.348;9.640;2023-03-03T04:40:10;73.78;;;33.95;;
5819;SDS011;2936;47.348;9.640;2023-03-03T04:42:39;78.05;;;33.50;;
5819;SDS011;2936;47.348;9.640;2023-03-03T04:45:06;77.82;;;31.23;;
5819;SDS011;2936;47.348;9.640;2023-03-03T04:47:34;92.65;;;35.65;;
5819;SDS011;2936;47.348;9.640;2023-03-03T04:50:01;74.90;;;31.45;;
5819;SDS011;2936;47.348;9.640;2023-03-03T04:52:29;74.95;;;33.58;;
5819;SDS011;2936;47.348;9.640;2023-03-03T04:54:56;77.28;;;34.15;;
5819;SDS011;2936;47.348;9.640;2023-03-03T04:57:24;79.30;;;34.03;;
5819;SDS011;2936;47.348;9.640;2023-03-03T04:59:53;83.28;;;33.50;;
5819;SDS011;2936;47.348;9.640;2023-03-03T05:02:29;83.63;;;34.28;;
5819;SDS011;2936;47.348;9.640;2023-03-03T05:04:57;83.55;;;34.72;;
5819;SDS011;2936;47.348;9.640;2023-03-03T05:07:24;89.30;;;32.45;;
5819;SDS011;2936;47.348;9.640;2023-03-03T05:09:52;88.30;;;35.88;;
5819;SDS011;2936;47.348;9.640;2023-03-03T05:12:19;98.32;;;34.95;;
5819;SDS011;2936;47.348;9.640;2023-03-03T05:14:47;102.05;;;36.83;;
5819;SDS011;2936;47.348;9.640;2023-03-03T05:17:15;89.15;;;35.00;;
5819;SDS011;2936;47.348;9.640;2023-03-03T05:19:43;87.15;;;35.33;;
5819;SDS011;2936;47.348;9.640;2023-03-03T05:22:10;88.68;;;33.85;;
5819;SDS011;2936;47.348;9.640;2023-03-03T05:24:37;88.28;;;33.45;;
5819;SDS011;2936;47.348;9.640;2023-03-03T05:27:07;112.20;;;34.30;;
5819;SDS011;2936;47.348;9.640;2023-03-03T05:29:35;78.20;;;31.52;;
5819;SDS011;2936;47.348;9.640;2023-03-03T05:32:03;85.13;;;32.83;;
5819;SDS011;2936;47.348;9.640;2023-03-03T05:34:32;122.75;;;36.92;;
5819;SDS011;2936;47.348;9.640;2023-03-03T05:37:03;82.05;;;32.28;;
5819;SDS011;2936;47.348;9.640;2023-03-03T05:39:44;82.60;;;32.20;;
5819;SDS011;2936;47.348;9.640;2023-03-03T05:42:12;100.57;;;36.55;;
5819;SDS011;2936;47.348;9.640;2023-03-03T05:44:41;95.70;;;35.80;;
5819;SDS011;2936;47.348;9.640;2023-03-03T05:47:08;82.75;;;35.08;;
5819;SDS011;2936;47.348;9.640;2023-03-03T05:49:38;88.50;;;33.30;;
5819;SDS011;2936;47.348;9.640;2023-03-03T05:52:14;95.78;;;34.13;;
5819;SDS011;2936;47.348;9.640;2023-03-03T05:54:51;84.82;;;35.55;;
5819;SDS011;2936;47.348;9.640;2023-03-03T05:57:23;82.55;;;33.70;;
5819;SDS011;2936;47.348;9.640;2023-03-03T05:59:54;80.43;;;33.60;;
5819;SDS011;2936;47.348;9.640;2023-03-03T06:02:22;85.18;;;32.83;;
5819;SDS011;2936;47.348;9.640;2023-03-03T06:04:51;94.68;;;33.50;;
5819;SDS011;2936;47.348;9.640;2023-03-03T06:07:18;87.78;;;33.47;;
5819;SDS011;2936;47.348;9.640;2023-03-03T06:09:45;70.78;;;32.25;;
5819;SDS011;2936;47.348;9.640;2023-03-03T06:12:13;82.40;;;33.88;;
5819;SDS011;2936;47.348;9.640;2023-03-03T06:14:40;84.15;;;34.50;;
5819;SDS011;2936;47.348;9.640;2023-03-03T06:17:07;89.07;;;35.75;;
5819;SDS011;2936;47.348;9.640;2023-03-03T06:19:35;75.68;;;31.52;;
5819;SDS011;2936;47.348;9.640;2023-03-03T06:22:04;85.78;;;33.35;;
5819;SDS011;2936;47.348;9.640;2023-03-03T06:24:32;87.47;;;35.22;;
5819;SDS011;2936;47.348;9.640;2023-03-03T06:26:59;85.03;;;34.30;;
5819;SDS011;2936;47.348;9.640;2023-03-03T06:29:27;84.22;;;33.40;;
5819;SDS011;2936;47.348;9.640;2023-03-03T06:31:54;87.07;;;32.72;;
5819;SDS011;2936;47.348;9.640;2023-03-03T06:34:21;80.78;;;33.70;;
5819;SDS011;2936;47.348;9.640;2023-03-03T06:36:50;90.60;;;35.25;;
5819;SDS011;2936;47.348;9.640;2023-03-03T06:39:19;92.65;;;35.70;;
5819;SDS011;2936;47.348;9.640;2023-03-03T06:41:46;90.20;;;38.42;;
5819;SDS011;2936;47.348;9.640;2023-03-03T06:44:16;97.18;;;37.13;;
5819;SDS011;2936;47.348;9.640;2023-03-03T06:46:44;96.07;;;35.90;;
5819;SDS011;2936;47.348;9.640;2023-03-03T06:49:11;108.20;;;38.03;;
5819;SDS011;2936;47.348;9.640;2023-03-03T06:51:38;83.38;;;35.58;;
5819;SDS011;2936;47.348;9.640;2023-03-03T06:54:09;100.10;;;37.42;;
5819;SDS011;2936;47.348;9.640;2023-03-03T06:56:38;85.93;;;36.70;;
5819;SDS011;2936;47.348;9.640;2023-03-03T06:59:09;98.95;;;37.67;;
5819;SDS011;2936;47.348;9.640;2023-03-03T07:01:37;92.85;;;38.50;;
5819;SDS011;2936;47.348;9.640;2023-03-03T07:04:09;99.35;;;37.20;;
5819;SDS011;2936;47.348;9.640;2023-03-03T07:06:37;106.53;;;40.63;;
5819;SDS011;2936;47.348;9.640;2023-03-03T07:09:05;113.60;;;40.65;;
5819;SDS011;2936;47.348;9.640;2023-03-03T07:11:34;115.90;;;42.50;;
5819;SDS011;2936;47.348;9.640;2023-03-03T07:14:07;95.90;;;39.97;;
5819;SDS011;2936;47.348;9.640;2023-03-03T07:16:40;103.97;;;38.63;;
5819;SDS011;2936;47.348;9.640;2023-03-03T07:19:10;105.28;;;39.72;;
5819;SDS011;2936;47.348;9.640;2023-03-03T07:21:40;94.63;;;40.05;;
5819;SDS011;2936;47.348;9.640;2023-03-03T07:24:14;94.90;;;38.53;;
5819;SDS011;2936;47.348;9.640;2023-03-03T07:26:43;95.75;;;40.25;;
5819;SDS011;2936;47.348;9.640;2023-03-03T07:29:15;95.15;;;39.03;;
5819;SDS011;2936;47.348;9.640;2023-03-03T07:31:45;98.07;;;37.97;;
5819;SDS011;2936;47.348;9.640;2023-03-03T07:34:15;109.43;;;40.80;;
5819;SDS011;2936;47.348;9.640;2023-03-03T07:36:44;118.10;;;40.10;;
5819;SDS011;2936;47.348;9.640;2023-03-03T07:41:57;97.30;;;39.30;;
5819;SDS011;2936;47.348;9.640;2023-03-03T07:44:28;100.65;;;38.95;;
5819;SDS011;2936;47.348;9.640;2023-03-03T07:46:58;109.35;;;39.30;;
5819;SDS011;2936;47.348;9.640;2023-03-03T07:49:28;104.47;;;38.10;;
5819;SDS011;2936;47.348;9.640;2023-03-03T07:51:59;141.85;;;41.78;;
5819;SDS011;2936;47.348;9.640;2023-03-03T07:54:28;94.32;;;36.63;;
5819;SDS011;2936;47.348;9.640;2023-03-03T07:56:56;99.35;;;37.83;;
5819;SDS011;2936;47.348;9.640;2023-03-03T07:59:25;97.88;;;36.20;;
5819;SDS011;2936;47.348;9.640;2023-03-03T08:01:54;90.43;;;36.38;;
5819;SDS011;2936;47.348;9.640;2023-03-03T08:04:23;133.82;;;38.50;;
5819;SDS011;2936;47.348;9.640;2023-03-03T08:06:52;87.95;;;36.10;;
5819;SDS011;2936;47.348;9.640;2023-03-03T08:09:30;87.05;;;34.45;;
5819;SDS011;2936;47.348;9.640;2023-03-03T08:12:09;95.32;;;37.70;;
5819;SDS011;2936;47.348;9.640;2023-03-03T08:14:38;104.85;;;38.08;;
5819;SDS011;2936;47.348;9.640;2023-03-03T08:17:10;85.43;;;35.40;;
5819;SDS011;2936;47.348;9.640;2023-03-03T08:19:40;90.57;;;33.67;;
5819;SDS011;2936;47.348;9.640;2023-03-03T08:22:08;78.82;;;32.33;;
5819;SDS011;2936;47.348;9.640;2023-03-03T08:24:38;72.53;;;32.22;;
5819;SDS011;2936;47.348;9.640;2023-03-03T08:27:05;82.82;;;33.20;;
5819;SDS011;2936;47.348;9.640;2023-03-03T08:29:32;75.97;;;31.95;;
5819;SDS011;2936;47.348;9.640;2023-03-03T08:32:00;84.68;;;33.70;;
5819;SDS011;2936;47.348;9.640;2023-03-03T08:34:29;71.55;;;31.10;;
5819;SDS011;2936;47.348;9.640;2023-03-03T08:36:56;82.88;;;34.92;;
5819;SDS011;2936;47.348;9.640;2023-03-03T08:39:23;76.35;;;32.30;;
5819;SDS011;2936;47.348;9.640;2023-03-03T08:41:51;93.72;;;33.55;;
5819;SDS011;2936;47.348;9.640;2023-03-03T08:44:18;74.70;;;32.60;;
5819;SDS011;2936;47.348;9.640;2023-03-03T08:46:45;72.18;;;31.92;;
5819;SDS011;2936;47.348;9.640;2023-03-03T08:49:13;76.75;;;31.98;;
5819;SDS011;2936;47.348;9.640;2023-03-03T08:51:42;87.57;;;39.25;;
5819;SDS011;2936;47.348;9.640;2023-03-03T08:54:09;72.28;;;31.35;;
5819;SDS011;2936;47.348;9.640;2023-03-03T08:56:37;119.15;;;36.33;;
5819;SDS011;2936;47.348;9.640;2023-03-03T08:59:04;79.75;;;32.25;;
5819;SDS011;2936;47.348;9.640;2023-03-03T09:01:32;86.05;;;33.92;;
5819;SDS011;2936;47.348;9.640;2023-03-03T09:03:59;87.03;;;33.83;;
5819;SDS011;2936;47.348;9.640;2023-03-03T09:06:26;80.72;;;34.30;;
5819;SDS011;2936;47.348;9.640;2023-03-03T09:08:55;80.38;;;33.40;;
5819;SDS011;2936;47.348;9.640;2023-03-03T09:11:24;81.10;;;34.38;;
5819;SDS011;2936;47.348;9.640;2023-03-03T09:13:53;99.80;;;36.63;;
5819;SDS011;2936;47.348;9.640;2023-03-03T09:16:25;72.20;;;33.60;;
5819;SDS011;2936;47.348;9.640;2023-03-03T09:18:53;79.75;;;31.50;;
5819;SDS011;2936;47.348;9.640;2023-03-03T09:21:22;70.38;;;31.50;;
5819;SDS011;2936;47.348;9.640;2023-03-03T09:23:54;80.13;;;32.70;;
5819;SDS011;2936;47.348;9.640;2023-03-03T09:26:24;74.68;;;32.28;;
5819;SDS011;2936;47.348;9.640;2023-03-03T09:28:54;76.03;;;32.80;;
5819;SDS011;2936;47.348;9.640;2023-03-03T09:31:24;114.82;;;39.60;;
5819;SDS011;2936;47.348;9.640;2023-03-03T09:33:52;92.57;;;34.80;;
5819;SDS011;2936;47.348;9.640;2023-03-03T09:36:23;80.47;;;33.13;;
5819;SDS011;2936;47.348;9.640;2023-03-03T09:38:51;84.93;;;31.52;;
5819;SDS011;2936;47.348;9.640;2023-03-03T09:44:16;79.40;;;33.25;;
5819;SDS011;2936;47.348;9.640;2023-03-03T09:46:49;73.10;;;32.25;;
5819;SDS011;2936;47.348;9.640;2023-03-03T09:49:22;77.22;;;31.20;;
5819;SDS011;2936;47.348;9.640;2023-03-03T09:51:57;85.72;;;32.97;;
5819;SDS011;2936;47.348;9.640;2023-03-03T09:57:09;74.72;;;32.25;;
5819;SDS011;2936;47.348;9.640;2023-03-03T10:02:30;90.65;;;33.15;;
5819;SDS011;2936;47.348;9.640;2023-03-03T10:05:03;72.35;;;30.67;;
5819;SDS011;2936;47.348;9.640;2023-03-03T10:07:34;67.38;;;30.35;;
5819;SDS011;2936;47.348;9.640;2023-03-03T10:10:10;72.30;;;31.75;;
5819;SDS011;2936;47.348;9.640;2023-03-03T10:12:44;67.82;;;30.92;;
5819;SDS011;2936;47.348;9.640;2023-03-03T10:18:11;65.72;;;29.45;;
5819;SDS011;2936;47.348;9.640;2023-03-03T10:20:45;64.93;;;28.92;;
5819;SDS011;2936;47.348;9.640;2023-03-03T10:23:23;80.30;;;29.20;;
5819;SDS011;2936;47.348;9.640;2023-03-03T10:25:58;88.50;;;30.67;;
5819;SDS011;2936;47.348;9.640;2023-03-03T10:31:22;62.75;;;26.90;;
5819;SDS011;2936;47.348;9.640;2023-03-03T10:33:55;62.00;;;29.38;;
5819;SDS011;2936;47.348;9.640;2023-03-03T10:36:30;80.05;;;31.77;;
5819;SDS011;2936;47.348;9.640;2023-03-03T10:39:01;73.07;;;31.70;;
5819;SDS011;2936;47.348;9.640;2023-03-03T10:41:38;63.63;;;29.98;;
5819;SDS011;2936;47.348;9.640;2023-03-03T10:44:17;61.25;;;29.15;;
5819;SDS011;2936;47.348;9.640;2023-03-03T10:47:02;70.32;;;31.13;;
5819;SDS011;2936;47.348;9.640;2023-03-03T10:49:44;74.68;;;30.67;;
5819;SDS011;2936;47.348;9.640;2023-03-03T10:52:17;80.25;;;29.92;;
5819;SDS011;2936;47.348;9.640;2023-03-03T10:57:47;60.97;;;30.80;;
5819;SDS011;2936;47.348;9.640;2023-03-03T11:00:21;69.90;;;30.05;;
5819;SDS011;2936;47.348;9.640;2023-03-03T11:03:07;70.75;;;30.98;;
5819;SDS011;2936;47.348;9.640;2023-03-03T11:05:42;71.18;;;31.48;;
5819;SDS011;2936;47.348;9.640;2023-03-03T11:08:14;69.75;;;31.65;;
5819;SDS011;2936;47.348;9.640;2023-03-03T11:10:46;72.22;;;30.75;;
5819;SDS011;2936;47.348;9.640;2023-03-03T11:13:16;69.07;;;31.88;;
5819;SDS011;2936;47.348;9.640;2023-03-03T11:15:58;69.70;;;30.17;;
5819;SDS011;2936;47.348;9.640;2023-03-03T11:18:41;67.45;;;30.75;;
5819;SDS011;2936;47.348;9.640;2023-03-03T11:21:14;68.88;;;30.42;;
5819;SDS011;2936;47.348;9.640;2023-03-03T11:23:54;66.13;;;31.00;;
5819;SDS011;2936;47.348;9.640;2023-03-03T11:26:28;80.32;;;32.63;;
5819;SDS011;2936;47.348;9.640;2023-03-03T11:31:46;71.85;;;31.13;;
5819;SDS011;2936;47.348;9.640;2023-03-03T11:34:18;71.15;;;31.52;;
5819;SDS011;2936;47.348;9.640;2023-03-03T11:36:49;72.32;;;30.77;;
5819;SDS011;2936;47.348;9.640;2023-03-03T11:39:19;82.38;;;31.27;;
5819;SDS011;2936;47.348;9.640;2023-03-03T11:41:51;65.57;;;31.02;;
5819;SDS011;2936;47.348;9.640;2023-03-03T11:44:26;68.05;;;30.77;;
5819;SDS011;2936;47.348;9.640;2023-03-03T11:46:55;72.78;;;32.53;;
5819;SDS011;2936;47.348;9.640;2023-03-03T11:49:25;72.55;;;31.17;;
5819;SDS011;2936;47.348;9.640;2023-03-03T11:51:59;89.75;;;33.22;;
5819;SDS011;2936;47.348;9.640;2023-03-03T11:54:30;77.85;;;34.38;;
5819;SDS011;2936;47.348;9.640;2023-03-03T11:56:59;72.75;;;32.42;;
5819;SDS011;2936;47.348;9.640;2023-03-03T11:59:52;77.82;;;32.75;;
5819;SDS011;2936;47.348;9.640;2023-03-03T12:02:25;88.65;;;31.58;;
5819;SDS011;2936;47.348;9.640;2023-03-03T12:04:54;72.70;;;33.00;;
5819;SDS011;2936;47.348;9.640;2023-03-03T12:07:27;81.35;;;34.03;;
5819;SDS011;2936;47.348;9.640;2023-03-03T12:10:02;72.60;;;31.55;;
5819;SDS011;2936;47.348;9.640;2023-03-03T12:12:50;67.40;;;31.48;;
5819;SDS011;2936;47.348;9.640;2023-03-03T12:15:21;65.10;;;32.47;;
5819;SDS011;2936;47.348;9.640;2023-03-03T12:20:39;68.00;;;32.05;;
5819;SDS011;2936;47.348;9.640;2023-03-03T12:23:15;71.82;;;32.53;;
5819;SDS011;2936;47.348;9.640;2023-03-03T12:26:03;79.35;;;33.33;;
5819;SDS011;2936;47.348;9.640;2023-03-03T12:28:33;70.00;;;31.80;;
5819;SDS011;2936;47.348;9.640;2023-03-03T12:33:51;70.55;;;31.95;;
5819;SDS011;2936;47.348;9.640;2023-03-03T12:36:33;72.78;;;31.80;;
5819;SDS011;2936;47.348;9.640;2023-03-03T12:39:05;73.50;;;32.17;;
5819;SDS011;2936;47.348;9.640;2023-03-03T12:41:35;79.40;;;34.53;;
5819;SDS011;2936;47.348;9.640;2023-03-03T12:44:07;78.07;;;34.50;;
5819;SDS011;2936;47.348;9.640;2023-03-03T12:46:43;79.40;;;36.47;;
5819;SDS011;2936;47.348;9.640;2023-03-03T12:49:11;75.22;;;33.15;;
5819;SDS011;2936;47.348;9.640;2023-03-03T12:51:50;70.72;;;32.90;;
5819;SDS011;2936;47.348;9.640;2023-03-03T12:57:09;77.55;;;35.15;;
5819;SDS011;2936;47.348;9.640;2023-03-03T12:59:44;76.25;;;35.30;;
5819;SDS011;2936;47.348;9.640;2023-03-03T13:02:19;78.65;;;34.20;;
5819;SDS011;2936;47.348;9.640;2023-03-03T13:04:54;81.18;;;35.47;;
5819;SDS011;2936;47.348;9.640;2023-03-03T13:07:23;77.97;;;34.10;;
5819;SDS011;2936;47.348;9.640;2023-03-03T13:09:57;68.70;;;32.25;;
5819;SDS011;2936;47.348;9.640;2023-03-03T13:12:31;79.68;;;33.70;;
5819;SDS011;2936;47.348;9.640;2023-03-03T13:15:02;79.25;;;35.92;;
5819;SDS011;2936;47.348;9.640;2023-03-03T13:17:32;79.03;;;35.05;;
5819;SDS011;2936;47.348;9.640;2023-03-03T13:20:01;76.70;;;34.17;;
5819;SDS011;2936;47.348;9.640;2023-03-03T13:22:34;80.82;;;35.00;;
5819;SDS011;2936;47.348;9.640;2023-03-03T13:25:04;77.05;;;35.78;;
5819;SDS011;2936;47.348;9.640;2023-03-03T13:27:35;77.63;;;35.53;;
5819;SDS011;2936;47.348;9.640;2023-03-03T13:30:08;84.88;;;35.33;;
5819;SDS011;2936;47.348;9.640;2023-03-03T13:32:42;77.18;;;35.45;;
5819;SDS011;2936;47.348;9.640;2023-03-03T13:35:14;80.60;;;35.05;;
5819;SDS011;2936;47.348;9.640;2023-03-03T13:37:45;80.80;;;35.45;;
5819;SDS011;2936;47.348;9.640;2023-03-03T13:40:14;86.53;;;36.75;;
5819;SDS011;2936;47.348;9.640;2023-03-03T13:42:44;77.63;;;33.55;;
5819;SDS011;2936;47.348;9.640;2023-03-03T13:45:16;85.88;;;36.78;;
5819;SDS011;2936;47.348;9.640;2023-03-03T13:47:45;81.30;;;33.78;;
5819;SDS011;2936;47.348;9.640;2023-03-03T13:50:17;88.45;;;36.60;;
5819;SDS011;2936;47.348;9.640;2023-03-03T13:52:48;89.60;;;37.80;;
5819;SDS011;2936;47.348;9.640;2023-03-03T13:55:20;79.68;;;35.40;;
5819;SDS011;2936;47.348;9.640;2023-03-03T13:57:59;88.22;;;37.83;;
5819;SDS011;2936;47.348;9.640;2023-03-03T14:03:25;77.68;;;33.70;;
5819;SDS011;2936;47.348;9.640;2023-03-03T14:05:56;89.50;;;35.65;;
5819;SDS011;2936;47.348;9.640;2023-03-03T14:08:34;83.72;;;36.38;;
5819;SDS011;2936;47.348;9.640;2023-03-03T14:11:09;93.35;;;37.60;;
5819;SDS011;2936;47.348;9.640;2023-03-03T14:13:40;82.32;;;36.15;;
5819;SDS011;2936;47.348;9.640;2023-03-03T14:16:12;88.45;;;35.75;;
5819;SDS011;2936;47.348;9.640;2023-03-03T14:18:44;88.53;;;36.28;;
5819;SDS011;2936;47.348;9.640;2023-03-03T14:21:20;77.03;;;36.67;;
5819;SDS011;2936;47.348;9.640;2023-03-03T14:23:50;87.50;;;38.45;;
5819;SDS011;2936;47.348;9.640;2023-03-03T14:26:21;102.43;;;39.22;;
5819;SDS011;2936;47.348;9.640;2023-03-03T14:28:50;82.80;;;39.30;;
5819;SDS011;2936;47.348;9.640;2023-03-03T14:31:20;90.68;;;37.47;;
5819;SDS011;2936;47.348;9.640;2023-03-03T14:33:57;92.72;;;37.92;;
5819;SDS011;2936;47.348;9.640;2023-03-03T14:36:26;88.65;;;39.50;;
5819;SDS011;2936;47.348;9.640;2023-03-03T14:38:54;84.82;;;37.42;;
5819;SDS011;2936;47.348;9.640;2023-03-03T14:41:22;96.40;;;38.03;;
5819;SDS011;2936;47.348;9.640;2023-03-03T14:44:19;98.43;;;37.90;;
5819;SDS011;2936;47.348;9.640;2023-03-03T14:46:51;84.57;;;35.10;;
5819;SDS011;2936;47.348;9.640;2023-03-03T14:49:30;90.32;;;40.25;;
5819;SDS011;2936;47.348;9.640;2023-03-03T14:52:01;96.57;;;40.47;;
5819;SDS011;2936;47.348;9.640;2023-03-03T14:54:29;97.22;;;39.88;;
5819;SDS011;2936;47.348;9.640;2023-03-03T14:57:06;94.20;;;38.08;;
5819;SDS011;2936;47.348;9.640;2023-03-03T14:59:36;88.97;;;38.90;;
5819;SDS011;2936;47.348;9.640;2023-03-03T15:07:41;88.35;;;39.00;;
5819;SDS011;2936;47.348;9.640;2023-03-03T15:10:09;102.47;;;39.53;;
5819;SDS011;2936;47.348;9.640;2023-03-03T15:12:39;99.45;;;41.08;;
5819;SDS011;2936;47.348;9.640;2023-03-03T15:15:16;93.85;;;38.42;;
5819;SDS011;2936;47.348;9.640;2023-03-03T15:17:52;89.15;;;37.70;;
5819;SDS011;2936;47.348;9.640;2023-03-03T15:20:27;90.80;;;39.10;;
5819;SDS011;2936;47.348;9.640;2023-03-03T15:22:59;101.35;;;40.75;;
5819;SDS011;2936;47.348;9.640;2023-03-03T15:25:32;92.60;;;39.53;;
5819;SDS011;2936;47.348;9.640;2023-03-03T15:28:05;85.03;;;37.75;;
5819;SDS011;2936;47.348;9.640;2023-03-03T15:30:39;104.38;;;41.72;;
5819;SDS011;2936;47.348;9.640;2023-03-03T15:33:12;94.38;;;39.08;;
5819;SDS011;2936;47.348;9.640;2023-03-03T15:35:46;88.05;;;40.90;;
5819;SDS011;2936;47.348;9.640;2023-03-03T15:38:17;90.35;;;39.00;;
5819;SDS011;2936;47.348;9.640;2023-03-03T15:40:48;93.32;;;40.70;;
5819;SDS011;2936;47.348;9.640;2023-03-03T15:43:19;92.75;;;42.17;;
5819;SDS011;2936;47.348;9.640;2023-03-03T15:45:51;94.93;;;38.90;;